HKE230 VHHH-ZBAD
Flight info
| Callsign | HKE230 |
|---|---|
| Flight time | 2h 40m |
| Altitude | 33100 |
| Route | BEKOL A461 BUBDA/K0854S1040 W56 REBIS/K0850S1010 W56 OPORU/K0850S1070 W56 ORODO/K0832S1040 W62 KARVU/K0833S1070 W62 IGDID/K0828S1040 W62 TEKIL/K0828S1070 G212 BELAX BELAX5L |
| Aircraft | A321/M-SDE3FGHIRWY/LB1 |
Departure
| Time | 2026-04-23 08:39 |
|---|---|
| Airport | Hong Kong International Airport (VHHH) |
Arrival
| Time | 2026-04-23 11:19 |
|---|---|
| Airport | Beijing Daxing International Airport (ZBAD) |
| Time | Latitude | Longitude | Altitude | Speed | Heading |
|---|---|---|---|---|---|
| 2026-04-23 07:45 | 22.30951 | 113.91882 | 36 ft | 0 kts | 251° |
| 2026-04-23 07:47 | 22.30952 | 113.91882 | 36 ft | 0 kts | 251° |
| 2026-04-23 08:10 | 22.30952 | 113.91883 | 37 ft | 0 kts | 251° |
| 2026-04-23 08:25 | 22.30952 | 113.91884 | 37 ft | 1 kts | 251° |
| 2026-04-23 08:26 | 22.30960 | 113.91908 | 37 ft | 4 kts | 251° |
| 2026-04-23 08:26 | 22.30968 | 113.91934 | 35 ft | 2 kts | 251° |
| 2026-04-23 08:26 | 22.30977 | 113.91955 | 35 ft | 4 kts | 221° |
| 2026-04-23 08:26 | 22.30997 | 113.91963 | 33 ft | 4 kts | 165° |
| 2026-04-23 08:27 | 22.31021 | 113.91954 | 37 ft | 4 kts | 160° |
| 2026-04-23 08:27 | 22.31047 | 113.91945 | 36 ft | 4 kts | 160° |
| 2026-04-23 08:27 | 22.31073 | 113.91935 | 36 ft | 4 kts | 160° |
| 2026-04-23 08:27 | 22.31098 | 113.91925 | 37 ft | 4 kts | 160° |
| 2026-04-23 08:28 | 22.31119 | 113.91918 | 37 ft | 0 kts | 160° |
| 2026-04-23 08:31 | 22.31114 | 113.91919 | 37 ft | 2 kts | 161° |
| 2026-04-23 08:31 | 22.31099 | 113.91925 | 35 ft | 3 kts | 161° |
| 2026-04-23 08:31 | 22.31070 | 113.91937 | 36 ft | 5 kts | 154° |
| 2026-04-23 08:32 | 22.31055 | 113.91974 | 37 ft | 6 kts | 85° |
| 2026-04-23 08:32 | 22.31055 | 113.92021 | 37 ft | 7 kts | 116° |
| 2026-04-23 08:32 | 22.31015 | 113.92049 | 37 ft | 7 kts | 159° |
| 2026-04-23 08:32 | 22.30953 | 113.92072 | 37 ft | 12 kts | 161° |
| 2026-04-23 08:33 | 22.30868 | 113.92104 | 37 ft | 16 kts | 161° |
| 2026-04-23 08:33 | 22.30763 | 113.92143 | 37 ft | 13 kts | 161° |
| 2026-04-23 08:33 | 22.30688 | 113.92176 | 37 ft | 9 kts | 137° |
| 2026-04-23 08:33 | 22.30690 | 113.92245 | 37 ft | 11 kts | 71° |
| 2026-04-23 08:34 | 22.30715 | 113.92324 | 36 ft | 11 kts | 71° |
| 2026-04-23 08:34 | 22.30742 | 113.92405 | 37 ft | 12 kts | 70° |
| 2026-04-23 08:34 | 22.30770 | 113.92490 | 37 ft | 12 kts | 71° |
| 2026-04-23 08:34 | 22.30799 | 113.92580 | 37 ft | 14 kts | 71° |
| 2026-04-23 08:35 | 22.30837 | 113.92698 | 37 ft | 17 kts | 71° |
| 2026-04-23 08:35 | 22.30877 | 113.92821 | 35 ft | 18 kts | 70° |
| 2026-04-23 08:35 | 22.30917 | 113.92945 | 37 ft | 18 kts | 70° |
| 2026-04-23 08:35 | 22.30954 | 113.93060 | 37 ft | 14 kts | 73° |
| 2026-04-23 08:36 | 22.30938 | 113.93159 | 36 ft | 14 kts | 120° |
| 2026-04-23 08:36 | 22.30873 | 113.93216 | 35 ft | 8 kts | 159° |
| 2026-04-23 08:36 | 22.30861 | 113.93221 | 37 ft | 0 kts | 161° |
| 2026-04-23 08:37 | 22.30837 | 113.93230 | 36 ft | 8 kts | 161° |
| 2026-04-23 08:37 | 22.30775 | 113.93253 | 36 ft | 10 kts | 164° |
| 2026-04-23 08:37 | 22.30724 | 113.93211 | 33 ft | 11 kts | 252° |
| 2026-04-23 08:37 | 22.30697 | 113.93127 | 35 ft | 15 kts | 251° |
| 2026-04-23 08:38 | 22.30626 | 113.92906 | 35 ft | 61 kts | 251° |
| 2026-04-23 08:38 | 22.30413 | 113.92254 | 39 ft | 121 kts | 250° |
| 2026-04-23 08:38 | 22.30077 | 113.91216 | 39 ft | 169 kts | 250° |
| 2026-04-23 08:38 | 22.29675 | 113.89967 | 381 ft | 182 kts | 253° |
| 2026-04-23 08:39 | 22.29246 | 113.88667 | 1053 ft | 184 kts | 252° |
| 2026-04-23 08:39 | 22.28820 | 113.87371 | 1845 ft | 183 kts | 251° |
| 2026-04-23 08:39 | 22.28284 | 113.86048 | 2102 ft | 202 kts | 238° |
| 2026-04-23 08:39 | 22.27498 | 113.84799 | 2573 ft | 204 kts | 236° |
| 2026-04-23 08:40 | 22.26686 | 113.83541 | 3070 ft | 204 kts | 236° |
| 2026-04-23 08:40 | 22.25840 | 113.82315 | 3547 ft | 204 kts | 226° |
| 2026-04-23 08:40 | 22.24646 | 113.81490 | 4011 ft | 208 kts | 202° |
| 2026-04-23 08:40 | 22.23119 | 113.81226 | 4037 ft | 241 kts | 184° |
| 2026-04-23 08:41 | 22.21400 | 113.81211 | 4469 ft | 250 kts | 180° |
| 2026-04-23 08:41 | 22.19698 | 113.81630 | 5107 ft | 255 kts | 157° |
| 2026-04-23 08:41 | 22.18275 | 113.82794 | 5748 ft | 262 kts | 136° |
| 2026-04-23 08:41 | 22.17068 | 113.84249 | 6332 ft | 265 kts | 135° |
| 2026-04-23 08:42 | 22.16000 | 113.85891 | 6852 ft | 272 kts | 119° |
| 2026-04-23 08:42 | 22.15265 | 113.87792 | 7366 ft | 277 kts | 115° |
| 2026-04-23 08:42 | 22.14559 | 113.89732 | 7890 ft | 281 kts | 110° |
| 2026-04-23 08:42 | 22.14297 | 113.91839 | 8403 ft | 289 kts | 88° |
| 2026-04-23 08:43 | 22.14746 | 113.93999 | 8625 ft | 307 kts | 64° |
| 2026-04-23 08:43 | 22.15772 | 113.96057 | 8976 ft | 316 kts | 60° |
| 2026-04-23 08:43 | 22.16838 | 113.98154 | 9469 ft | 321 kts | 61° |
| 2026-04-23 08:43 | 22.17891 | 114.00255 | 9966 ft | 324 kts | 61° |
| 2026-04-23 08:44 | 22.19099 | 114.02377 | 10135 ft | 341 kts | 51° |
| 2026-04-23 08:44 | 22.20761 | 114.04273 | 10264 ft | 356 kts | 41° |
| 2026-04-23 08:44 | 22.22624 | 114.06131 | 10384 ft | 373 kts | 41° |
| 2026-04-23 08:44 | 22.24566 | 114.08070 | 10571 ft | 386 kts | 41° |
| 2026-04-23 08:45 | 22.26547 | 114.10054 | 10997 ft | 390 kts | 41° |
| 2026-04-23 08:45 | 22.28612 | 114.11969 | 11471 ft | 392 kts | 33° |
| 2026-04-23 08:45 | 22.30946 | 114.13481 | 11956 ft | 391 kts | 24° |
| 2026-04-23 08:45 | 22.33357 | 114.14777 | 12461 ft | 394 kts | 23° |
| 2026-04-23 08:46 | 22.35817 | 114.16100 | 12971 ft | 396 kts | 24° |
| 2026-04-23 08:46 | 22.38283 | 114.17428 | 13449 ft | 398 kts | 24° |
| 2026-04-23 08:46 | 22.40860 | 114.18531 | 13869 ft | 397 kts | 11° |
| 2026-04-23 08:46 | 22.43579 | 114.18944 | 14259 ft | 393 kts | 356° |
| 2026-04-23 08:47 | 22.46278 | 114.18646 | 14665 ft | 389 kts | 342° |
| 2026-04-23 08:47 | 22.48813 | 114.17680 | 15085 ft | 385 kts | 329° |
| 2026-04-23 08:47 | 22.51054 | 114.16131 | 15492 ft | 381 kts | 317° |
| 2026-04-23 08:47 | 22.53142 | 114.14346 | 15910 ft | 384 kts | 318° |
| 2026-04-23 08:48 | 22.55381 | 114.12789 | 16324 ft | 393 kts | 328° |
| 2026-04-23 08:48 | 22.57863 | 114.11514 | 16785 ft | 397 kts | 330° |
| 2026-04-23 08:48 | 22.60270 | 114.10288 | 17191 ft | 399 kts | 330° |
| 2026-04-23 08:48 | 22.62839 | 114.08972 | 17619 ft | 402 kts | 330° |
| 2026-04-23 08:49 | 22.65373 | 114.07668 | 18052 ft | 405 kts | 329° |
| 2026-04-23 08:49 | 22.67922 | 114.06352 | 18450 ft | 407 kts | 329° |
| 2026-04-23 08:49 | 22.70487 | 114.05030 | 18841 ft | 409 kts | 330° |
| 2026-04-23 08:49 | 22.73060 | 114.03706 | 19235 ft | 411 kts | 330° |
| 2026-04-23 08:50 | 22.75648 | 114.02375 | 19622 ft | 412 kts | 330° |
| 2026-04-23 08:50 | 22.78239 | 114.01041 | 20000 ft | 414 kts | 330° |
| 2026-04-23 08:50 | 22.80844 | 113.99702 | 20370 ft | 415 kts | 330° |
| 2026-04-23 08:50 | 22.83424 | 113.98376 | 20746 ft | 416 kts | 330° |
| 2026-04-23 08:51 | 22.86046 | 113.97026 | 21095 ft | 418 kts | 330° |
| 2026-04-23 08:51 | 22.88676 | 113.95667 | 21431 ft | 419 kts | 330° |
| 2026-04-23 08:51 | 22.91313 | 113.94301 | 21786 ft | 421 kts | 330° |
| 2026-04-23 08:51 | 22.93952 | 113.92931 | 22126 ft | 422 kts | 330° |
| 2026-04-23 08:52 | 22.96602 | 113.91553 | 22452 ft | 423 kts | 330° |
| 2026-04-23 08:52 | 22.99260 | 113.90168 | 22769 ft | 425 kts | 330° |
| 2026-04-23 08:52 | 23.01026 | 113.89246 | 22969 ft | 426 kts | 330° |
| 2026-04-23 08:52 | 23.03701 | 113.87852 | 23277 ft | 427 kts | 330° |
| 2026-04-23 08:53 | 23.07260 | 113.85995 | 23621 ft | 429 kts | 329° |
| 2026-04-23 08:53 | 23.09997 | 113.84665 | 23861 ft | 434 kts | 335° |
| 2026-04-23 08:53 | 23.12841 | 113.83544 | 24112 ft | 436 kts | 335° |
| 2026-04-23 08:53 | 23.15693 | 113.82423 | 24360 ft | 437 kts | 335° |
| 2026-04-23 08:54 | 23.18554 | 113.81301 | 24611 ft | 438 kts | 335° |
| 2026-04-23 08:54 | 23.20456 | 113.80555 | 24781 ft | 439 kts | 335° |
| 2026-04-23 08:54 | 23.23333 | 113.79429 | 25031 ft | 440 kts | 335° |
| 2026-04-23 08:54 | 23.26219 | 113.78298 | 25280 ft | 441 kts | 335° |
| 2026-04-23 08:55 | 23.29109 | 113.77165 | 25529 ft | 442 kts | 335° |
| 2026-04-23 08:55 | 23.32951 | 113.75654 | 25850 ft | 444 kts | 334° |
| 2026-04-23 08:55 | 23.35860 | 113.74509 | 26087 ft | 446 kts | 334° |
| 2026-04-23 08:55 | 23.37830 | 113.73731 | 26245 ft | 446 kts | 334° |
| 2026-04-23 08:56 | 23.40756 | 113.72571 | 26482 ft | 448 kts | 334° |
| 2026-04-23 08:56 | 23.43507 | 113.71479 | 26700 ft | 449 kts | 334° |
| 2026-04-23 08:56 | 23.46447 | 113.70309 | 26921 ft | 451 kts | 334° |
| 2026-04-23 08:56 | 23.49398 | 113.69140 | 27141 ft | 452 kts | 334° |
| 2026-04-23 08:57 | 23.52359 | 113.67970 | 27348 ft | 454 kts | 334° |
| 2026-04-23 08:57 | 23.55335 | 113.66800 | 27555 ft | 455 kts | 334° |
| 2026-04-23 08:57 | 23.58322 | 113.65625 | 27826 ft | 458 kts | 333° |
| 2026-04-23 08:57 | 23.61321 | 113.64445 | 28292 ft | 460 kts | 334° |
| 2026-04-23 08:58 | 23.64326 | 113.63259 | 28709 ft | 459 kts | 333° |
| 2026-04-23 08:58 | 23.67298 | 113.62077 | 28989 ft | 461 kts | 333° |
| 2026-04-23 08:58 | 23.70316 | 113.60875 | 29228 ft | 462 kts | 333° |
| 2026-04-23 08:58 | 23.73342 | 113.59677 | 29489 ft | 463 kts | 333° |
| 2026-04-23 08:59 | 23.76371 | 113.58482 | 29775 ft | 463 kts | 332° |
| 2026-04-23 08:59 | 23.79393 | 113.57288 | 30050 ft | 462 kts | 332° |
| 2026-04-23 08:59 | 23.82413 | 113.56094 | 30296 ft | 461 kts | 332° |
| 2026-04-23 08:59 | 23.85430 | 113.54898 | 30567 ft | 460 kts | 332° |
| 2026-04-23 09:00 | 23.88430 | 113.53706 | 30857 ft | 458 kts | 332° |
| 2026-04-23 09:00 | 23.91383 | 113.52529 | 31144 ft | 457 kts | 332° |
| 2026-04-23 09:00 | 23.94360 | 113.51343 | 31439 ft | 455 kts | 332° |
| 2026-04-23 09:00 | 23.97329 | 113.50159 | 31760 ft | 453 kts | 332° |
| 2026-04-23 09:01 | 24.00280 | 113.48979 | 32059 ft | 451 kts | 332° |
| 2026-04-23 09:01 | 24.03228 | 113.47801 | 32331 ft | 450 kts | 332° |
| 2026-04-23 09:01 | 24.06161 | 113.46628 | 32624 ft | 448 kts | 332° |
| 2026-04-23 09:01 | 24.09082 | 113.45462 | 32896 ft | 447 kts | 332° |
| 2026-04-23 09:02 | 24.14900 | 113.43144 | 32997 ft | 443 kts | 331° |
| 2026-04-23 09:02 | 24.20934 | 113.41618 | 33004 ft | 461 kts | 348° |
| 2026-04-23 09:03 | 24.27431 | 113.41772 | 33002 ft | 468 kts | 353° |
| 2026-04-23 09:03 | 24.33948 | 113.42000 | 33008 ft | 469 kts | 353° |
| 2026-04-23 09:04 | 24.40470 | 113.42192 | 33016 ft | 469 kts | 352° |
| 2026-04-23 09:04 | 24.46947 | 113.42354 | 33010 ft | 468 kts | 353° |
| 2026-04-23 09:05 | 24.53469 | 113.42537 | 33012 ft | 469 kts | 352° |
| 2026-04-23 09:05 | 24.60003 | 113.42728 | 33018 ft | 470 kts | 352° |
| 2026-04-23 09:06 | 24.66542 | 113.42914 | 33029 ft | 471 kts | 352° |
| 2026-04-23 09:06 | 24.73051 | 113.43104 | 33034 ft | 471 kts | 352° |
| 2026-04-23 09:07 | 24.79601 | 113.43292 | 33037 ft | 471 kts | 352° |
| 2026-04-23 09:07 | 24.86169 | 113.43473 | 33044 ft | 472 kts | 352° |
| 2026-04-23 09:08 | 24.92733 | 113.43657 | 33041 ft | 472 kts | 352° |
| 2026-04-23 09:08 | 24.99257 | 113.43841 | 33046 ft | 472 kts | 351° |
| 2026-04-23 09:09 | 25.05829 | 113.44024 | 33048 ft | 472 kts | 351° |
| 2026-04-23 09:09 | 25.12401 | 113.44214 | 33051 ft | 473 kts | 351° |
| 2026-04-23 09:10 | 25.22272 | 113.44500 | 33044 ft | 472 kts | 351° |
| 2026-04-23 09:11 | 25.28847 | 113.44690 | 33043 ft | 473 kts | 351° |
| 2026-04-23 09:11 | 25.35405 | 113.44868 | 33061 ft | 475 kts | 351° |
| 2026-04-23 09:12 | 25.42016 | 113.45063 | 33059 ft | 476 kts | 351° |
| 2026-04-23 09:12 | 25.48637 | 113.45262 | 33059 ft | 476 kts | 351° |
| 2026-04-23 09:13 | 25.55265 | 113.45452 | 33075 ft | 476 kts | 351° |
| 2026-04-23 09:13 | 25.61846 | 113.45640 | 33086 ft | 476 kts | 350° |
| 2026-04-23 09:14 | 25.68475 | 113.45829 | 33087 ft | 477 kts | 350° |
| 2026-04-23 09:14 | 25.75104 | 113.46016 | 33089 ft | 477 kts | 350° |
| 2026-04-23 09:15 | 25.81741 | 113.46204 | 33094 ft | 477 kts | 350° |
| 2026-04-23 09:15 | 25.88374 | 113.46377 | 33096 ft | 476 kts | 348° |
| 2026-04-23 09:16 | 25.94911 | 113.46218 | 33099 ft | 471 kts | 345° |
| 2026-04-23 09:16 | 26.01443 | 113.45852 | 33107 ft | 470 kts | 345° |
| 2026-04-23 09:17 | 26.07987 | 113.45527 | 33108 ft | 472 kts | 345° |
| 2026-04-23 09:17 | 26.14535 | 113.45278 | 33105 ft | 471 kts | 346° |
| 2026-04-23 09:18 | 26.21047 | 113.45055 | 33104 ft | 471 kts | 345° |
| 2026-04-23 09:18 | 26.27598 | 113.44815 | 33106 ft | 471 kts | 345° |
| 2026-04-23 09:19 | 26.34139 | 113.44556 | 33095 ft | 470 kts | 345° |
| 2026-04-23 09:19 | 26.40687 | 113.44291 | 33106 ft | 471 kts | 345° |
| 2026-04-23 09:20 | 26.47191 | 113.44038 | 33109 ft | 471 kts | 345° |
| 2026-04-23 09:20 | 26.53745 | 113.43800 | 33112 ft | 471 kts | 345° |
| 2026-04-23 09:21 | 26.60299 | 113.43554 | 33113 ft | 471 kts | 345° |
| 2026-04-23 09:21 | 26.66839 | 113.43295 | 33112 ft | 470 kts | 345° |
| 2026-04-23 09:22 | 26.73330 | 113.43042 | 33108 ft | 470 kts | 345° |
| 2026-04-23 09:22 | 26.79848 | 113.42795 | 33112 ft | 468 kts | 344° |
| 2026-04-23 09:23 | 26.86368 | 113.42541 | 33113 ft | 470 kts | 344° |
| 2026-04-23 09:23 | 26.92904 | 113.42286 | 33113 ft | 470 kts | 344° |
| 2026-04-23 09:24 | 26.99438 | 113.42031 | 33111 ft | 470 kts | 344° |
| 2026-04-23 09:24 | 27.05934 | 113.41784 | 33111 ft | 470 kts | 344° |
| 2026-04-23 09:25 | 27.12472 | 113.41534 | 33113 ft | 470 kts | 344° |
| 2026-04-23 09:25 | 27.19014 | 113.41282 | 33112 ft | 470 kts | 344° |
| 2026-04-23 09:26 | 27.25562 | 113.41028 | 33117 ft | 471 kts | 344° |
| 2026-04-23 09:26 | 27.32065 | 113.40770 | 33116 ft | 471 kts | 344° |
| 2026-04-23 09:27 | 27.38023 | 113.40690 | 33117 ft | 476 kts | 347° |
| 2026-04-23 09:27 | 27.44663 | 113.40880 | 33112 ft | 479 kts | 348° |
| 2026-04-23 09:28 | 27.51322 | 113.41121 | 33112 ft | 478 kts | 348° |
| 2026-04-23 09:28 | 27.57966 | 113.41281 | 33116 ft | 477 kts | 347° |
| 2026-04-23 09:29 | 27.64555 | 113.41383 | 33121 ft | 477 kts | 347° |
| 2026-04-23 09:29 | 27.71243 | 113.41713 | 33122 ft | 484 kts | 351° |
| 2026-04-23 09:30 | 27.77984 | 113.42395 | 33118 ft | 487 kts | 352° |
| 2026-04-23 09:30 | 27.84727 | 113.43116 | 33116 ft | 486 kts | 351° |
| 2026-04-23 09:31 | 27.91361 | 113.43732 | 33116 ft | 485 kts | 351° |
| 2026-04-23 09:31 | 27.98087 | 113.44293 | 33122 ft | 485 kts | 350° |
| 2026-04-23 09:32 | 28.04812 | 113.44857 | 33129 ft | 485 kts | 350° |
| 2026-04-23 09:32 | 28.11543 | 113.45436 | 33123 ft | 485 kts | 350° |
| 2026-04-23 09:33 | 28.18266 | 113.45934 | 33120 ft | 484 kts | 349° |
| 2026-04-23 09:33 | 28.24944 | 113.46380 | 33126 ft | 484 kts | 349° |
| 2026-04-23 09:34 | 28.31666 | 113.46852 | 33127 ft | 484 kts | 349° |
| 2026-04-23 09:34 | 28.38383 | 113.47340 | 33129 ft | 483 kts | 349° |
| 2026-04-23 09:35 | 28.45089 | 113.47829 | 33121 ft | 483 kts | 349° |
| 2026-04-23 09:35 | 28.51753 | 113.48304 | 33124 ft | 483 kts | 349° |
| 2026-04-23 09:36 | 28.58454 | 113.48781 | 33127 ft | 482 kts | 349° |
| 2026-04-23 09:36 | 28.65153 | 113.49257 | 33129 ft | 482 kts | 349° |
| 2026-04-23 09:37 | 28.71837 | 113.49729 | 33130 ft | 481 kts | 349° |
| 2026-04-23 09:37 | 28.78471 | 113.50196 | 33132 ft | 480 kts | 349° |
| 2026-04-23 09:38 | 28.85138 | 113.50676 | 33131 ft | 480 kts | 350° |
| 2026-04-23 09:38 | 28.91796 | 113.51167 | 33128 ft | 479 kts | 350° |
| 2026-04-23 09:39 | 28.98429 | 113.51648 | 33121 ft | 478 kts | 350° |
| 2026-04-23 09:39 | 29.05012 | 113.52115 | 33119 ft | 477 kts | 350° |
| 2026-04-23 09:40 | 29.11636 | 113.52588 | 33125 ft | 476 kts | 350° |
| 2026-04-23 09:40 | 29.18245 | 113.53073 | 33129 ft | 476 kts | 351° |
| 2026-04-23 09:41 | 29.24844 | 113.53559 | 33132 ft | 474 kts | 351° |
| 2026-04-23 09:41 | 29.31423 | 113.54038 | 33114 ft | 475 kts | 351° |
| 2026-04-23 09:42 | 29.37976 | 113.54588 | 33123 ft | 476 kts | 352° |
| 2026-04-23 09:42 | 29.44585 | 113.55191 | 33123 ft | 476 kts | 352° |
| 2026-04-23 09:43 | 29.51183 | 113.55783 | 33125 ft | 475 kts | 352° |
| 2026-04-23 09:43 | 29.57782 | 113.56356 | 33130 ft | 475 kts | 352° |
| 2026-04-23 09:44 | 29.64330 | 113.56921 | 33127 ft | 475 kts | 352° |
| 2026-04-23 09:44 | 29.70916 | 113.57488 | 33132 ft | 475 kts | 352° |
| 2026-04-23 09:45 | 29.77507 | 113.58070 | 33130 ft | 475 kts | 353° |
| 2026-04-23 09:45 | 29.84093 | 113.58647 | 33132 ft | 475 kts | 353° |
| 2026-04-23 09:46 | 29.90680 | 113.59221 | 33130 ft | 475 kts | 353° |
| 2026-04-23 09:46 | 29.93946 | 113.59742 | 33123 ft | 487 kts | 2° |
| 2026-04-23 09:46 | 29.97233 | 113.60894 | 33123 ft | 502 kts | 12° |
| 2026-04-23 09:47 | 30.03682 | 113.64112 | 33124 ft | 505 kts | 14° |
| 2026-04-23 09:47 | 30.10129 | 113.67342 | 33126 ft | 505 kts | 14° |
| 2026-04-23 09:48 | 30.16579 | 113.70561 | 33126 ft | 505 kts | 13° |
| 2026-04-23 09:48 | 30.22990 | 113.73750 | 33132 ft | 505 kts | 13° |
| 2026-04-23 09:49 | 30.29438 | 113.76974 | 33129 ft | 505 kts | 14° |
| 2026-04-23 09:49 | 30.35881 | 113.80221 | 33132 ft | 505 kts | 14° |
| 2026-04-23 09:50 | 30.42316 | 113.83467 | 33132 ft | 504 kts | 14° |
| 2026-04-23 09:50 | 30.48691 | 113.86666 | 33135 ft | 504 kts | 14° |
| 2026-04-23 09:51 | 30.55072 | 113.89872 | 33133 ft | 503 kts | 14° |
| 2026-04-23 09:51 | 30.61487 | 113.93112 | 33132 ft | 503 kts | 14° |
| 2026-04-23 09:52 | 30.67910 | 113.96317 | 33135 ft | 501 kts | 13° |
| 2026-04-23 09:52 | 30.74322 | 113.99539 | 33128 ft | 504 kts | 15° |
| 2026-04-23 09:53 | 30.80618 | 114.03056 | 33133 ft | 506 kts | 17° |
| 2026-04-23 09:53 | 30.86947 | 114.06616 | 33133 ft | 505 kts | 16° |
| 2026-04-23 09:54 | 30.93302 | 114.10083 | 33136 ft | 504 kts | 15° |
| 2026-04-23 09:54 | 30.99672 | 114.13492 | 33136 ft | 504 kts | 15° |
| 2026-04-23 09:55 | 31.05997 | 114.16900 | 33136 ft | 504 kts | 16° |
| 2026-04-23 09:55 | 31.12358 | 114.20360 | 33133 ft | 504 kts | 16° |
| 2026-04-23 09:56 | 31.18714 | 114.23832 | 33138 ft | 504 kts | 16° |
| 2026-04-23 09:56 | 31.25066 | 114.27307 | 33139 ft | 504 kts | 16° |
| 2026-04-23 09:57 | 31.31413 | 114.30773 | 33141 ft | 503 kts | 15° |
| 2026-04-23 09:57 | 31.34590 | 114.32168 | 33125 ft | 491 kts | 6° |
| 2026-04-23 09:57 | 31.37898 | 114.33027 | 33126 ft | 479 kts | 358° |
| 2026-04-23 09:57 | 31.41173 | 114.33339 | 33130 ft | 467 kts | 351° |
| 2026-04-23 09:58 | 31.44427 | 114.33427 | 33132 ft | 468 kts | 351° |
| 2026-04-23 09:58 | 31.50931 | 114.33606 | 33126 ft | 468 kts | 351° |
| 2026-04-23 09:59 | 31.57449 | 114.33800 | 33124 ft | 469 kts | 351° |
| 2026-04-23 09:59 | 31.63931 | 114.33999 | 33136 ft | 469 kts | 351° |
| 2026-04-23 10:00 | 31.70459 | 114.34194 | 33143 ft | 469 kts | 351° |
| 2026-04-23 10:00 | 31.76986 | 114.34383 | 33145 ft | 469 kts | 352° |
| 2026-04-23 10:01 | 31.83505 | 114.34582 | 33141 ft | 468 kts | 352° |
| 2026-04-23 10:01 | 31.89969 | 114.34780 | 33143 ft | 467 kts | 352° |
| 2026-04-23 10:02 | 31.96466 | 114.34980 | 33142 ft | 467 kts | 352° |
| 2026-04-23 10:02 | 32.02958 | 114.35172 | 33139 ft | 466 kts | 352° |
| 2026-04-23 10:03 | 32.09441 | 114.35366 | 33139 ft | 466 kts | 352° |
| 2026-04-23 10:03 | 32.15907 | 114.35565 | 33141 ft | 464 kts | 352° |
| 2026-04-23 10:04 | 32.22323 | 114.35754 | 33137 ft | 464 kts | 352° |
| 2026-04-23 10:04 | 32.28782 | 114.36015 | 33138 ft | 466 kts | 354° |
| 2026-04-23 10:05 | 32.35258 | 114.36612 | 33136 ft | 467 kts | 356° |
| 2026-04-23 10:05 | 32.41730 | 114.37306 | 33135 ft | 467 kts | 356° |
| 2026-04-23 10:06 | 32.48153 | 114.37932 | 33133 ft | 466 kts | 356° |
| 2026-04-23 10:06 | 32.54603 | 114.38517 | 33130 ft | 465 kts | 356° |
| 2026-04-23 10:07 | 32.61053 | 114.39096 | 33131 ft | 464 kts | 356° |
| 2026-04-23 10:07 | 32.67492 | 114.39685 | 33128 ft | 464 kts | 356° |
| 2026-04-23 10:08 | 32.73881 | 114.40280 | 33130 ft | 463 kts | 357° |
| 2026-04-23 10:08 | 32.80305 | 114.40885 | 33130 ft | 463 kts | 357° |
| 2026-04-23 10:09 | 32.89927 | 114.41777 | 33121 ft | 462 kts | 357° |
| 2026-04-23 10:09 | 32.96339 | 114.42373 | 33122 ft | 462 kts | 357° |
| 2026-04-23 10:10 | 33.02701 | 114.42962 | 33117 ft | 461 kts | 357° |
| 2026-04-23 10:10 | 33.09099 | 114.43563 | 33123 ft | 461 kts | 357° |
| 2026-04-23 10:11 | 33.15498 | 114.44160 | 33112 ft | 461 kts | 358° |
| 2026-04-23 10:11 | 33.21886 | 114.44766 | 33115 ft | 460 kts | 358° |
| 2026-04-23 10:12 | 33.28225 | 114.45368 | 33112 ft | 460 kts | 358° |
| 2026-04-23 10:12 | 33.34605 | 114.45966 | 33117 ft | 460 kts | 358° |
| 2026-04-23 10:13 | 33.40984 | 114.46567 | 33108 ft | 460 kts | 358° |
| 2026-04-23 10:13 | 33.47355 | 114.47171 | 33117 ft | 459 kts | 358° |
| 2026-04-23 10:14 | 33.53682 | 114.47768 | 33105 ft | 459 kts | 358° |
| 2026-04-23 10:14 | 33.60050 | 114.48369 | 33111 ft | 459 kts | 358° |
| 2026-04-23 10:15 | 33.66413 | 114.48962 | 33116 ft | 459 kts | 358° |
| 2026-04-23 10:15 | 33.72774 | 114.49552 | 33119 ft | 459 kts | 358° |
| 2026-04-23 10:16 | 33.79093 | 114.50148 | 33116 ft | 458 kts | 358° |
| 2026-04-23 10:16 | 33.85450 | 114.50749 | 33117 ft | 458 kts | 358° |
| 2026-04-23 10:17 | 33.91803 | 114.51343 | 33108 ft | 458 kts | 358° |
| 2026-04-23 10:17 | 33.98153 | 114.51941 | 33118 ft | 458 kts | 358° |
| 2026-04-23 10:18 | 34.04461 | 114.52537 | 33113 ft | 458 kts | 358° |
| 2026-04-23 10:18 | 34.10809 | 114.53135 | 33115 ft | 458 kts | 358° |
| 2026-04-23 10:19 | 34.17160 | 114.53739 | 33112 ft | 458 kts | 358° |
| 2026-04-23 10:19 | 34.23511 | 114.54345 | 33111 ft | 458 kts | 358° |
| 2026-04-23 10:20 | 34.29857 | 114.54953 | 33108 ft | 457 kts | 358° |
| 2026-04-23 10:20 | 34.36158 | 114.55554 | 33104 ft | 457 kts | 358° |
| 2026-04-23 10:21 | 34.42501 | 114.56154 | 33097 ft | 457 kts | 358° |
| 2026-04-23 10:21 | 34.48847 | 114.56749 | 33101 ft | 457 kts | 358° |
| 2026-04-23 10:22 | 34.55183 | 114.57350 | 33094 ft | 457 kts | 358° |
| 2026-04-23 10:22 | 34.61484 | 114.57951 | 33096 ft | 457 kts | 359° |
| 2026-04-23 10:23 | 34.67823 | 114.58555 | 33096 ft | 457 kts | 358° |
| 2026-04-23 10:23 | 34.74171 | 114.59159 | 33097 ft | 457 kts | 358° |
| 2026-04-23 10:24 | 34.80518 | 114.59762 | 33094 ft | 457 kts | 358° |
| 2026-04-23 10:24 | 34.86822 | 114.60362 | 33094 ft | 458 kts | 358° |
| 2026-04-23 10:25 | 34.93170 | 114.60973 | 33090 ft | 458 kts | 358° |
| 2026-04-23 10:25 | 34.99519 | 114.61590 | 33095 ft | 458 kts | 358° |
| 2026-04-23 10:26 | 35.05869 | 114.62189 | 33092 ft | 458 kts | 358° |
| 2026-04-23 10:26 | 35.12219 | 114.62795 | 33097 ft | 458 kts | 358° |
| 2026-04-23 10:27 | 35.18527 | 114.63406 | 33089 ft | 458 kts | 358° |
| 2026-04-23 10:27 | 35.24870 | 114.64020 | 33095 ft | 457 kts | 358° |
| 2026-04-23 10:28 | 35.31215 | 114.64632 | 33087 ft | 457 kts | 358° |
| 2026-04-23 10:28 | 35.37557 | 114.65249 | 33085 ft | 457 kts | 358° |
| 2026-04-23 10:29 | 35.43852 | 114.65856 | 33080 ft | 457 kts | 358° |
| 2026-04-23 10:29 | 35.50193 | 114.66466 | 33082 ft | 457 kts | 358° |
| 2026-04-23 10:30 | 35.56533 | 114.67081 | 33078 ft | 457 kts | 358° |
| 2026-04-23 10:30 | 35.62877 | 114.67702 | 33079 ft | 457 kts | 358° |
| 2026-04-23 10:31 | 35.69180 | 114.68312 | 33071 ft | 457 kts | 358° |
| 2026-04-23 10:31 | 35.75529 | 114.68925 | 33075 ft | 458 kts | 358° |
| 2026-04-23 10:32 | 35.81881 | 114.69550 | 33068 ft | 458 kts | 358° |
| 2026-04-23 10:32 | 35.88244 | 114.70180 | 33068 ft | 459 kts | 358° |
| 2026-04-23 10:33 | 35.94566 | 114.70797 | 33063 ft | 459 kts | 358° |
| 2026-04-23 10:33 | 36.00931 | 114.71421 | 33063 ft | 459 kts | 358° |
| 2026-04-23 10:34 | 36.07306 | 114.72051 | 33065 ft | 459 kts | 357° |
| 2026-04-23 10:34 | 36.13683 | 114.72678 | 33064 ft | 460 kts | 357° |
| 2026-04-23 10:35 | 36.20016 | 114.73293 | 33056 ft | 460 kts | 357° |
| 2026-04-23 10:35 | 36.26393 | 114.73917 | 33055 ft | 460 kts | 357° |
| 2026-04-23 10:36 | 36.32776 | 114.74551 | 33056 ft | 460 kts | 357° |
| 2026-04-23 10:36 | 36.39144 | 114.74960 | 33049 ft | 453 kts | 350° |
| 2026-04-23 10:37 | 36.45447 | 114.74670 | 33046 ft | 453 kts | 350° |
| 2026-04-23 10:37 | 36.51712 | 114.74374 | 33040 ft | 454 kts | 350° |
| 2026-04-23 10:38 | 36.58030 | 114.74085 | 33038 ft | 454 kts | 350° |
| 2026-04-23 10:38 | 36.64353 | 114.73794 | 33036 ft | 455 kts | 350° |
| 2026-04-23 10:39 | 36.70680 | 114.73503 | 33029 ft | 455 kts | 350° |
| 2026-04-23 10:39 | 36.77051 | 114.73737 | 33029 ft | 467 kts | 4° |
| 2026-04-23 10:40 | 36.83239 | 114.76404 | 33024 ft | 481 kts | 19° |
| 2026-04-23 10:40 | 36.89310 | 114.79943 | 33026 ft | 481 kts | 19° |
| 2026-04-23 10:41 | 36.95390 | 114.83461 | 33024 ft | 482 kts | 19° |
| 2026-04-23 10:41 | 37.01429 | 114.86973 | 33028 ft | 482 kts | 19° |
| 2026-04-23 10:42 | 37.07499 | 114.90530 | 33021 ft | 482 kts | 19° |
| 2026-04-23 10:42 | 37.13568 | 114.94095 | 33025 ft | 482 kts | 19° |
| 2026-04-23 10:43 | 37.19641 | 114.97653 | 33027 ft | 482 kts | 19° |
| 2026-04-23 10:43 | 37.25709 | 115.01217 | 33027 ft | 482 kts | 19° |
| 2026-04-23 10:44 | 37.31741 | 115.04757 | 33007 ft | 482 kts | 19° |
| 2026-04-23 10:44 | 37.37811 | 115.08339 | 33005 ft | 482 kts | 19° |
| 2026-04-23 10:45 | 37.43886 | 115.11937 | 33007 ft | 483 kts | 19° |
| 2026-04-23 10:45 | 37.49965 | 115.15538 | 33011 ft | 483 kts | 20° |
| 2026-04-23 10:46 | 37.56006 | 115.19119 | 33008 ft | 484 kts | 19° |
| 2026-04-23 10:46 | 37.62056 | 115.22699 | 33011 ft | 484 kts | 19° |
| 2026-04-23 10:47 | 37.68145 | 115.26309 | 33007 ft | 484 kts | 19° |
| 2026-04-23 10:47 | 37.74248 | 115.29949 | 33008 ft | 485 kts | 20° |
| 2026-04-23 10:48 | 37.80522 | 115.32772 | 33004 ft | 472 kts | 4° |
| 2026-04-23 10:48 | 37.86903 | 115.33169 | 33000 ft | 455 kts | 346° |
| 2026-04-23 10:49 | 37.93185 | 115.32270 | 32998 ft | 455 kts | 346° |
| 2026-04-23 10:49 | 37.99480 | 115.31393 | 33001 ft | 455 kts | 346° |
| 2026-04-23 10:50 | 38.05781 | 115.30507 | 32808 ft | 456 kts | 346° |
| 2026-04-23 10:50 | 38.08890 | 115.30068 | 32546 ft | 455 kts | 346° |
| 2026-04-23 10:50 | 38.12035 | 115.29619 | 32300 ft | 455 kts | 346° |
| 2026-04-23 10:51 | 38.15182 | 115.29160 | 32035 ft | 454 kts | 346° |
| 2026-04-23 10:51 | 38.18317 | 115.28696 | 31776 ft | 453 kts | 346° |
| 2026-04-23 10:51 | 38.21439 | 115.28228 | 31530 ft | 451 kts | 346° |
| 2026-04-23 10:51 | 38.24556 | 115.27758 | 31280 ft | 450 kts | 346° |
| 2026-04-23 10:52 | 38.27659 | 115.27294 | 31035 ft | 448 kts | 346° |
| 2026-04-23 10:52 | 38.30751 | 115.26837 | 30777 ft | 447 kts | 346° |
| 2026-04-23 10:52 | 38.33832 | 115.26383 | 30544 ft | 445 kts | 346° |
| 2026-04-23 10:52 | 38.36907 | 115.25927 | 30310 ft | 443 kts | 346° |
| 2026-04-23 10:53 | 38.39923 | 115.25480 | 30073 ft | 442 kts | 346° |
| 2026-04-23 10:53 | 38.42968 | 115.25029 | 29816 ft | 440 kts | 346° |
| 2026-04-23 10:53 | 38.46002 | 115.24580 | 29538 ft | 438 kts | 346° |
| 2026-04-23 10:53 | 38.49021 | 115.24132 | 29256 ft | 435 kts | 346° |
| 2026-04-23 10:54 | 38.52028 | 115.23733 | 28979 ft | 436 kts | 351° |
| 2026-04-23 10:54 | 38.55085 | 115.23985 | 28697 ft | 446 kts | 4° |
| 2026-04-23 10:54 | 38.58070 | 115.25131 | 28431 ft | 454 kts | 18° |
| 2026-04-23 10:54 | 38.60835 | 115.27162 | 28162 ft | 461 kts | 33° |
| 2026-04-23 10:55 | 38.63186 | 115.29978 | 27894 ft | 466 kts | 47° |
| 2026-04-23 10:55 | 38.64952 | 115.33389 | 27634 ft | 469 kts | 62° |
| 2026-04-23 10:55 | 38.66345 | 115.37157 | 27371 ft | 468 kts | 63° |
| 2026-04-23 10:55 | 38.67719 | 115.40920 | 27106 ft | 465 kts | 63° |
| 2026-04-23 10:56 | 38.69084 | 115.44659 | 26875 ft | 463 kts | 63° |
| 2026-04-23 10:56 | 38.70444 | 115.48384 | 26608 ft | 461 kts | 63° |
| 2026-04-23 10:56 | 38.71804 | 115.52084 | 26352 ft | 458 kts | 61° |
| 2026-04-23 10:56 | 38.73374 | 115.55604 | 26102 ft | 453 kts | 56° |
| 2026-04-23 10:57 | 38.74986 | 115.59058 | 25853 ft | 451 kts | 56° |
| 2026-04-23 10:57 | 38.76587 | 115.62498 | 25604 ft | 449 kts | 56° |
| 2026-04-23 10:57 | 38.78180 | 115.65939 | 25362 ft | 447 kts | 57° |
| 2026-04-23 10:57 | 38.79734 | 115.69309 | 25126 ft | 444 kts | 56° |
| 2026-04-23 10:58 | 38.81298 | 115.72701 | 24894 ft | 441 kts | 56° |
| 2026-04-23 10:58 | 38.82855 | 115.76082 | 24647 ft | 439 kts | 56° |
| 2026-04-23 10:58 | 38.84403 | 115.79447 | 24416 ft | 437 kts | 56° |
| 2026-04-23 10:58 | 38.85940 | 115.82794 | 24183 ft | 434 kts | 56° |
| 2026-04-23 10:59 | 38.87469 | 115.86121 | 23948 ft | 431 kts | 56° |
| 2026-04-23 10:59 | 38.88988 | 115.89427 | 23719 ft | 429 kts | 56° |
| 2026-04-23 10:59 | 38.90483 | 115.92675 | 23493 ft | 427 kts | 56° |
| 2026-04-23 10:59 | 38.91985 | 115.95946 | 23228 ft | 424 kts | 56° |
| 2026-04-23 11:00 | 38.93478 | 115.99206 | 22952 ft | 422 kts | 56° |
| 2026-04-23 11:00 | 38.94959 | 116.02449 | 22684 ft | 420 kts | 56° |
| 2026-04-23 11:00 | 38.96431 | 116.05678 | 22417 ft | 418 kts | 56° |
| 2026-04-23 11:00 | 38.97895 | 116.08887 | 22149 ft | 415 kts | 56° |
| 2026-04-23 11:01 | 38.99517 | 116.11907 | 21882 ft | 406 kts | 43° |
| 2026-04-23 11:01 | 39.01600 | 116.14281 | 21622 ft | 396 kts | 28° |
| 2026-04-23 11:01 | 39.04000 | 116.15906 | 21367 ft | 385 kts | 14° |
| 2026-04-23 11:01 | 39.06507 | 116.16738 | 21093 ft | 371 kts | 2° |
| 2026-04-23 11:02 | 39.09039 | 116.16832 | 20672 ft | 359 kts | 349° |
| 2026-04-23 11:02 | 39.11498 | 116.16458 | 20257 ft | 354 kts | 348° |
| 2026-04-23 11:02 | 39.13936 | 116.16079 | 19818 ft | 352 kts | 348° |
| 2026-04-23 11:02 | 39.16357 | 116.15706 | 19389 ft | 349 kts | 348° |
| 2026-04-23 11:03 | 39.18760 | 116.15340 | 18952 ft | 347 kts | 349° |
| 2026-04-23 11:03 | 39.21145 | 116.14978 | 18530 ft | 344 kts | 349° |
| 2026-04-23 11:03 | 39.23517 | 116.14618 | 18055 ft | 343 kts | 349° |
| 2026-04-23 11:03 | 39.25881 | 116.14256 | 17568 ft | 340 kts | 349° |
| 2026-04-23 11:04 | 39.28181 | 116.13903 | 17130 ft | 337 kts | 350° |
| 2026-04-23 11:04 | 39.30501 | 116.13549 | 16700 ft | 333 kts | 350° |
| 2026-04-23 11:04 | 39.32791 | 116.13199 | 16269 ft | 330 kts | 350° |
| 2026-04-23 11:04 | 39.35063 | 116.12847 | 15841 ft | 327 kts | 350° |
| 2026-04-23 11:05 | 39.37308 | 116.12500 | 15422 ft | 324 kts | 351° |
| 2026-04-23 11:05 | 39.39539 | 116.12155 | 14997 ft | 322 kts | 351° |
| 2026-04-23 11:05 | 39.41755 | 116.11813 | 14580 ft | 319 kts | 351° |
| 2026-04-23 11:05 | 39.43956 | 116.11474 | 14166 ft | 318 kts | 351° |
| 2026-04-23 11:06 | 39.48318 | 116.10800 | 13295 ft | 314 kts | 352° |
| 2026-04-23 11:06 | 39.50475 | 116.10466 | 12880 ft | 311 kts | 352° |
| 2026-04-23 11:06 | 39.52587 | 116.10143 | 12460 ft | 309 kts | 352° |
| 2026-04-23 11:07 | 39.54712 | 116.09819 | 12048 ft | 306 kts | 352° |
| 2026-04-23 11:07 | 39.56822 | 116.09496 | 11634 ft | 305 kts | 352° |
| 2026-04-23 11:07 | 39.58907 | 116.09177 | 11321 ft | 300 kts | 352° |
| 2026-04-23 11:07 | 39.60971 | 116.08865 | 10937 ft | 298 kts | 352° |
| 2026-04-23 11:08 | 39.63022 | 116.08552 | 10541 ft | 296 kts | 352° |
| 2026-04-23 11:08 | 39.65051 | 116.08241 | 10303 ft | 289 kts | 352° |
| 2026-04-23 11:08 | 39.67001 | 116.07941 | 10076 ft | 283 kts | 352° |
| 2026-04-23 11:08 | 39.68937 | 116.07643 | 9893 ft | 279 kts | 352° |
| 2026-04-23 11:09 | 39.70866 | 116.07347 | 9777 ft | 279 kts | 352° |
| 2026-04-23 11:09 | 39.72809 | 116.07101 | 9391 ft | 282 kts | 0° |
| 2026-04-23 11:09 | 39.74706 | 116.07714 | 8926 ft | 286 kts | 28° |
| 2026-04-23 11:09 | 39.76174 | 116.09456 | 8428 ft | 292 kts | 57° |
| 2026-04-23 11:10 | 39.76831 | 116.11932 | 8024 ft | 291 kts | 81° |
| 2026-04-23 11:10 | 39.77093 | 116.14537 | 7424 ft | 290 kts | 82° |
| 2026-04-23 11:10 | 39.77336 | 116.17123 | 7091 ft | 283 kts | 83° |
| 2026-04-23 11:10 | 39.77561 | 116.19557 | 6965 ft | 267 kts | 83° |
| 2026-04-23 11:11 | 39.77780 | 116.21900 | 6749 ft | 256 kts | 83° |
| 2026-04-23 11:11 | 39.77988 | 116.24175 | 6600 ft | 253 kts | 84° |
| 2026-04-23 11:11 | 39.78189 | 116.26438 | 6307 ft | 251 kts | 84° |
| 2026-04-23 11:11 | 39.78389 | 116.28684 | 5978 ft | 249 kts | 84° |
| 2026-04-23 11:12 | 39.78552 | 116.30912 | 5623 ft | 246 kts | 93° |
| 2026-04-23 11:12 | 39.78091 | 116.32995 | 5324 ft | 239 kts | 124° |
| 2026-04-23 11:12 | 39.76919 | 116.34448 | 5017 ft | 232 kts | 154° |
| 2026-04-23 11:12 | 39.75387 | 116.34994 | 4722 ft | 227 kts | 174° |
| 2026-04-23 11:13 | 39.73845 | 116.35229 | 4365 ft | 225 kts | 174° |
| 2026-04-23 11:13 | 39.72308 | 116.35469 | 4050 ft | 219 kts | 174° |
| 2026-04-23 11:13 | 39.70837 | 116.35702 | 3778 ft | 205 kts | 175° |
| 2026-04-23 11:13 | 39.69496 | 116.35916 | 3524 ft | 182 kts | 174° |
| 2026-04-23 11:14 | 39.68336 | 116.36101 | 3300 ft | 156 kts | 175° |
| 2026-04-23 11:14 | 39.67299 | 116.36266 | 3088 ft | 148 kts | 175° |
| 2026-04-23 11:14 | 39.66291 | 116.36425 | 2894 ft | 145 kts | 176° |
| 2026-04-23 11:14 | 39.65295 | 116.36582 | 2706 ft | 143 kts | 176° |
| 2026-04-23 11:15 | 39.64321 | 116.36737 | 2518 ft | 143 kts | 175° |
| 2026-04-23 11:15 | 39.63337 | 116.36893 | 2327 ft | 142 kts | 176° |
| 2026-04-23 11:15 | 39.62355 | 116.37048 | 2140 ft | 142 kts | 176° |
| 2026-04-23 11:15 | 39.61378 | 116.37203 | 1951 ft | 141 kts | 175° |
| 2026-04-23 11:16 | 39.60400 | 116.37358 | 1764 ft | 141 kts | 176° |
| 2026-04-23 11:16 | 39.59428 | 116.37512 | 1575 ft | 141 kts | 175° |
| 2026-04-23 11:16 | 39.58453 | 116.37666 | 1384 ft | 141 kts | 175° |
| 2026-04-23 11:16 | 39.57481 | 116.37820 | 1195 ft | 140 kts | 174° |
| 2026-04-23 11:17 | 39.56523 | 116.37972 | 1011 ft | 141 kts | 175° |
| 2026-04-23 11:17 | 39.55548 | 116.38126 | 845 ft | 142 kts | 175° |
| 2026-04-23 11:17 | 39.54557 | 116.38284 | 686 ft | 144 kts | 174° |
| 2026-04-23 11:17 | 39.53567 | 116.38443 | 530 ft | 143 kts | 174° |
| 2026-04-23 11:18 | 39.52583 | 116.38596 | 361 ft | 142 kts | 174° |
| 2026-04-23 11:18 | 39.51600 | 116.38754 | 133 ft | 141 kts | 174° |
| 2026-04-23 11:18 | 39.50670 | 116.38896 | 96 ft | 121 kts | 173° |
| 2026-04-23 11:18 | 39.50006 | 116.39002 | 93 ft | 71 kts | 172° |
| 2026-04-23 11:19 | 39.49674 | 116.39057 | 98 ft | 34 kts | 173° |
| 2026-04-23 11:19 | 39.49459 | 116.39106 | 98 ft | 30 kts | 160° |
| 2026-04-23 11:19 | 39.49288 | 116.39228 | 95 ft | 21 kts | 146° |
| 2026-04-23 11:19 | 39.49206 | 116.39299 | 92 ft | 15 kts | 145° |
| 2026-04-23 11:20 | 39.49119 | 116.39376 | 87 ft | 15 kts | 146° |
| 2026-04-23 11:20 | 39.49031 | 116.39452 | 87 ft | 14 kts | 146° |
| 2026-04-23 11:20 | 39.49006 | 116.39534 | 87 ft | 11 kts | 86° |
| 2026-04-23 11:20 | 39.49016 | 116.39634 | 86 ft | 12 kts | 83° |
| 2026-04-23 11:21 | 39.49025 | 116.39739 | 89 ft | 12 kts | 83° |
| 2026-04-23 11:21 | 39.49035 | 116.39838 | 94 ft | 10 kts | 83° |
| 2026-04-23 11:21 | 39.49038 | 116.39869 | 96 ft | 0 kts | 83° |
| 2026-04-23 11:23 | 39.49039 | 116.39881 | 93 ft | 4 kts | 83° |
| 2026-04-23 11:24 | 39.49042 | 116.39916 | 97 ft | 8 kts | 83° |
| 2026-04-23 11:24 | 39.49054 | 116.40040 | 103 ft | 14 kts | 83° |
| 2026-04-23 11:24 | 39.49066 | 116.40174 | 98 ft | 13 kts | 83° |
| 2026-04-23 11:24 | 39.49115 | 116.40257 | 90 ft | 14 kts | 1° |
| 2026-04-23 11:25 | 39.49219 | 116.40242 | 90 ft | 15 kts | 353° |
| 2026-04-23 11:25 | 39.49329 | 116.40228 | 90 ft | 16 kts | 353° |
| 2026-04-23 11:25 | 39.49456 | 116.40206 | 90 ft | 21 kts | 352° |
| 2026-04-23 11:25 | 39.49549 | 116.40192 | 92 ft | 19 kts | 354° |
| 2026-04-23 11:26 | 39.49673 | 116.40174 | 90 ft | 17 kts | 353° |
| 2026-04-23 11:26 | 39.49810 | 116.40152 | 90 ft | 15 kts | 353° |
| 2026-04-23 11:26 | 39.49927 | 116.40133 | 92 ft | 18 kts | 352° |
| 2026-04-23 11:26 | 39.50038 | 116.40116 | 93 ft | 13 kts | 353° |
| 2026-04-23 11:27 | 39.50098 | 116.40147 | 89 ft | 10 kts | 65° |
| 2026-04-23 11:27 | 39.50105 | 116.40205 | 87 ft | 11 kts | 83° |
| 2026-04-23 11:27 | 39.50116 | 116.40332 | 90 ft | 16 kts | 84° |
| 2026-04-23 11:27 | 39.50129 | 116.40470 | 88 ft | 14 kts | 83° |
| 2026-04-23 11:28 | 39.50141 | 116.40589 | 85 ft | 13 kts | 83° |
| 2026-04-23 11:28 | 39.50156 | 116.40749 | 85 ft | 13 kts | 83° |
| 2026-04-23 11:28 | 39.50184 | 116.40818 | 88 ft | 10 kts | 25° |
| 2026-04-23 11:28 | 39.50258 | 116.40813 | 87 ft | 11 kts | 353° |
| 2026-04-23 11:29 | 39.50311 | 116.40805 | 85 ft | 12 kts | 353° |
| 2026-04-23 11:29 | 39.50392 | 116.40792 | 88 ft | 12 kts | 352° |
| 2026-04-23 11:29 | 39.50464 | 116.40783 | 87 ft | 10 kts | 4° |
| 2026-04-23 11:29 | 39.50522 | 116.40810 | 88 ft | 8 kts | 22° |
| 2026-04-23 11:30 | 39.50538 | 116.40864 | 87 ft | 7 kts | 100° |
| 2026-04-23 11:30 | 39.50531 | 116.40916 | 87 ft | 5 kts | 100° |
| 2026-04-23 11:30 | 39.50525 | 116.40957 | 85 ft | 4 kts | 100° |
| 2026-04-23 11:30 | 39.50521 | 116.40986 | 85 ft | 3 kts | 100° |
| 2026-04-23 11:31 | 39.50519 | 116.40998 | 85 ft | 0 kts | 101° |
| 2026-04-23 11:45 | 39.50519 | 116.40997 | 85 ft | 0 kts | 101° |